Time;durP1;ratioP1;P1;durP2;ratioP2;P2;SDS_P1;SDS_P2;PMS_P1;PMS_P2;Temp;Humidity;BMP_temperature;BMP_pressure;BME280_temperature;BME280_humidity;BME280_pressure;Samples;Min_cycle;Max_cycle;Signal;HPM_P1;HPM_P2
2022/09/07 00:01:31;;;;;;;3.12;2.02;;;;;;;13.52;56.37;98813.11;1602064;89;27500;-60
2022/09/07 00:03:58;;;;;;;4.45;2.42;;;;;;;13.47;56.31;98825.08;1601898;89;25720;-61
2022/09/07 00:06:25;;;;;;;5.80;2.40;;;;;;;13.42;56.44;98818.39;1601953;89;25449;-63
2022/09/07 00:08:50;;;;;;;4.55;2.80;;;;;;;13.41;56.59;98816.75;1602197;89;26339;-58
2022/09/07 00:11:18;;;;;;;3.90;1.95;;;;;;;13.40;56.47;98817.90;1602344;89;25631;-59
2022/09/07 00:13:48;;;;;;;5.45;1.90;;;;;;;13.35;56.59;98822.19;1602183;89;29469;-62
2022/09/07 00:16:19;;;;;;;2.95;2.10;;;;;;;13.28;56.66;98823.53;1602219;89;25649;-59
2022/09/07 00:18:47;;;;;;;3.95;2.17;;;;;;;13.22;56.76;98815.20;1602328;89;25491;-59
2022/09/07 00:21:16;;;;;;;2.70;1.95;;;;;;;13.16;56.57;98817.89;1602319;89;25930;-62
2022/09/07 00:23:44;;;;;;;3.83;2.02;;;;;;;13.11;56.71;98829.88;1602233;88;25706;-60
2022/09/07 00:26:14;;;;;;;4.08;1.87;;;;;;;13.05;56.83;98821.55;1602258;89;27306;-61
2022/09/07 00:28:41;;;;;;;2.87;1.82;;;;;;;13.05;56.79;98825.68;1602252;89;25708;-62
2022/09/07 00:31:15;;;;;;;4.35;2.25;;;;;;;13.00;56.65;98818.41;1601930;89;25597;-61
2022/09/07 00:33:43;;;;;;;3.15;2.33;;;;;;;12.99;56.66;98817.36;1602154;89;26813;-61
2022/09/07 00:36:10;;;;;;;5.65;3.25;;;;;;;13.00;56.38;98821.16;1602314;89;25512;-62
2022/09/07 00:38:37;;;;;;;9.15;3.50;;;;;;;13.00;56.38;98821.16;1602363;89;27338;-61
2022/09/07 00:41:03;;;;;;;10.15;4.53;;;;;;;12.98;56.67;98830.88;1602071;89;25834;-63
2022/09/07 00:43:38;;;;;;;8.70;4.62;;;;;;;12.97;56.79;98823.73;1602138;89;25752;-60
2022/09/07 00:46:08;;;;;;;4.55;2.45;;;;;;;12.91;56.85;98821.17;1601644;89;26963;-62
2022/09/07 00:48:52;;;;;;;3.90;2.58;;;;;;;12.89;56.77;98823.43;1602502;88;25669;-62
2022/09/07 00:51:26;;;;;;;3.02;1.90;;;;;;;12.87;57.14;98825.69;1601696;89;27501;-62
2022/09/07 00:53:57;;;;;;;5.80;2.72;;;;;;;12.90;56.99;98828.38;1602238;88;25846;-58
2022/09/07 00:56:29;;;;;;;2.92;1.85;;;;;;;12.85;56.79;98825.22;1602045;89;25665;-61
2022/09/07 00:58:55;;;;;;;3.42;1.75;;;;;;;12.82;56.83;98826.42;1602216;88;26003;-59
2022/09/07 01:01:22;;;;;;;5.47;1.82;;;;;;;12.82;56.84;98817.63;1602149;89;25509;-60
2022/09/07 01:03:52;;;;;;;4.20;2.00;;;;;;;12.77;56.72;98821.34;1601956;89;28335;-61
2022/09/07 01:06:34;;;;;;;4.25;1.90;;;;;;;12.78;56.83;98815.28;1602092;89;25696;-61
2022/09/07 01:09:05;;;;;;;3.67;1.90;;;;;;;12.76;56.84;98803.80;1602323;89;25669;-62
2022/09/07 01:11:37;;;;;;;;;;;;;;;12.70;56.92;98809.21;1604614;89;26843;-62
2022/09/07 01:14:03;;;;;;;3.35;1.72;;;;;;;12.66;56.97;98810.41;1601084;89;25613;-62
2022/09/07 01:17:07;;;;;;;4.17;1.90;;;;;;;12.61;56.94;98810.01;1602229;89;27560;-62
2022/09/07 01:20:12;;;;;;;4.22;1.92;;;;;;;12.58;56.84;98805.16;1602183;88;25964;-62
2022/09/07 01:23:11;;;;;;;3.98;1.70;;;;;;;12.55;56.75;98802.50;1602260;89;25508;-63
2022/09/07 01:26:01;;;;;;;3.30;1.70;;;;;;;12.53;56.67;98795.13;1601892;89;26218;-62
2022/09/07 01:28:32;;;;;;;3.20;1.92;;;;;;;12.47;56.66;98796.45;1602332;89;25494;-62
2022/09/07 01:31:13;;;;;;;;;;;;;;;12.39;56.80;98797.24;1603112;89;27418;-62
2022/09/07 01:33:56;;;;;;;2.80;1.72;;;;;;;12.38;56.84;98798.39;1588691;89;25561;-62
2022/09/07 01:36:37;;;;;;;3.87;1.77;;;;;;;12.33;57.17;98795.23;1588860;90;25756;-60
2022/09/07 01:39:05;;;;;;;4.10;2.03;;;;;;;12.27;57.04;98802.80;1583660;90;25619;-63
2022/09/07 01:42:00;;;;;;;2.85;2.10;;;;;;;12.20;57.07;98795.60;1589146;90;25648;-62
2022/09/07 01:44:43;;;;;;;4.60;1.95;;;;;;;12.19;57.21;98801.42;1584003;90;27378;-61
2022/09/07 01:47:41;;;;;;;6.78;1.80;;;;;;;12.15;57.07;98802.06;1573188;91;25687;-63
2022/09/07 01:50:15;;;;;;;4.60;1.82;;;;;;;12.14;57.05;98805.95;1573280;91;25533;-63
2022/09/07 01:52:59;;;;;;;4.03;1.90;;;;;;;12.08;57.20;98806.41;1573441;91;26117;-62
2022/09/07 01:55:39;;;;;;;4.95;1.87;;;;;;;11.99;57.20;98807.73;1573495;91;25830;-62
2022/09/07 01:58:13;;;;;;;4.33;2.00;;;;;;;11.90;57.21;98798.93;1573454;91;27626;-59
2022/09/07 02:00:45;;;;;;;3.77;1.85;;;;;;;11.85;57.38;98799.06;1573266;91;25804;-62
2022/09/07 02:03:37;;;;;;;2.95;1.50;;;;;;;11.83;57.50;98788.16;1573453;91;25720;-63
2022/09/07 02:06:24;;;;;;;3.25;1.98;;;;;;;11.79;57.72;98781.12;1573246;91;26102;-62
2022/09/07 02:08:55;;;;;;;3.58;1.65;;;;;;;11.74;57.75;98779.88;1573505;91;25566;-59
2022/09/07 02:11:38;;;;;;;4.25;2.27;;;;;;;11.69;57.90;98784.98;1587537;90;27525;-62
2022/09/07 02:14:24;;;;;;;3.70;2.20;;;;;;;11.66;57.76;98782.28;1595003;89;25935;-62
2022/09/07 02:17:08;;;;;;;3.70;2.50;;;;;;;11.63;57.93;98781.55;1594992;89;25750;-64
2022/09/07 02:19:41;;;;;;;6.37;2.22;;;;;;;11.62;57.97;98779.94;1594182;89;26072;-64
2022/09/07 02:22:15;;;;;;;3.52;1.90;;;;;;;11.60;58.20;98771.79;1595193;90;25487;-63
2022/09/07 02:24:46;;;;;;;3.95;2.37;;;;;;;11.57;58.29;98774.58;1595273;89;27424;-64
2022/09/07 02:27:21;;;;;;;3.95;2.00;;;;;;;11.47;58.48;98775.70;1594899;89;25740;-63
2022/09/07 02:29:48;;;;;;;4.85;1.80;;;;;;;11.45;58.54;98773.82;1595302;89;25532;-62
2022/09/07 02:32:14;;;;;;;3.30;1.95;;;;;;;11.38;58.80;98778.41;1594847;90;26084;-63
2022/09/07 02:34:41;;;;;;;2.17;1.50;;;;;;;11.34;58.77;98773.87;1595033;90;25508;-63
2022/09/07 02:37:09;;;;;;;5.42;2.17;;;;;;;11.29;59.01;98773.44;1594886;90;27522;-63
2022/09/07 02:39:35;;;;;;;3.98;2.08;;;;;;;11.30;58.96;98780.54;1595066;89;26064;-61
2022/09/07 02:42:01;;;;;;;3.92;1.87;;;;;;;11.29;58.92;98778.34;1595418;89;25756;-63
2022/09/07 02:44:33;;;;;;;5.15;1.72;;;;;;;11.28;59.21;98776.73;1598411;89;26107;-63
2022/09/07 02:47:22;;;;;;;6.17;1.82;;;;;;;11.29;59.43;98781.67;1613298;88;25668;-64
2022/09/07 02:50:22;;;;;;;4.25;2.22;;;;;;;11.27;59.20;98777.05;1613551;88;28464;-62
2022/09/07 02:53:26;;;;;;;3.02;1.90;;;;;;;11.28;59.25;98766.31;1598928;89;25575;-62
2022/09/07 02:56:31;;;;;;;4.40;1.95;;;;;;;11.28;59.30;98764.95;1599278;89;25686;-63
2022/09/07 02:59:18;;;;;;;5.00;2.35;;;;;;;11.27;59.16;98757.30;1598981;89;26105;-63
2022/09/07 03:02:01;;;;;;;3.95;2.50;;;;;;;11.25;59.25;98755.97;1599204;89;25505;-63
2022/09/07 03:04:48;;;;;;;5.40;2.33;;;;;;;11.20;59.46;98748.69;1598853;89;27438;-63
2022/09/07 03:07:19;;;;;;;5.62;3.05;;;;;;;11.15;59.32;98757.08;1599082;89;25528;-63
2022/09/07 03:09:52;;;;;;;;;;;;;;;11.13;59.33;98761.50;1601451;89;25794;-62
2022/09/07 03:12:19;;;;;;;6.12;3.45;;;;;;;11.15;59.26;98753.78;1598984;89;26048;-62
2022/09/07 03:14:45;;;;;;;4.67;2.65;;;;;;;11.14;59.70;98754.88;1598966;89;25934;-63
2022/09/07 03:17:12;;;;;;;5.22;2.80;;;;;;;11.12;59.40;98749.47;1599189;89;26932;-63
2022/09/07 03:19:39;;;;;;;4.15;2.40;;;;;;;11.12;59.93;98756.33;1598975;89;25728;-63
2022/09/07 03:22:05;;;;;;;3.08;1.25;;;;;;;11.10;59.21;98759.94;1598956;89;25792;-63
2022/09/07 03:24:32;;;;;;;3.15;2.02;;;;;;;11.11;59.30;98753.35;1599186;89;26190;-61
2022/09/07 03:26:59;;;;;;;4.65;2.10;;;;;;;11.11;59.33;98760.20;1599189;89;25485;-63
2022/09/07 03:29:25;;;;;;;2.83;1.80;;;;;;;11.08;59.26;98759.47;1603325;89;27539;-63
2022/09/07 03:31:51;;;;;;;4.75;2.20;;;;;;;11.07;59.17;98763.31;1613447;88;25708;-63
2022/09/07 03:34:18;;;;;;;3.65;2.00;;;;;;;11.06;59.29;98761.15;1613335;88;25443;-64
2022/09/07 03:36:44;;;;;;;5.60;2.27;;;;;;;11.07;59.49;98761.94;1613749;88;26024;-63
2022/09/07 03:39:12;;;;;;;2.65;1.47;;;;;;;11.06;59.41;98763.08;1613407;88;25697;-63
2022/09/07 03:41:39;;;;;;;2.70;2.00;;;;;;;10.99;59.56;98761.59;1613299;88;28282;-58
2022/09/07 03:44:06;;;;;;;4.37;2.25;;;;;;;10.91;59.66;98765.89;1613276;88;25660;-61
2022/09/07 03:46:33;;;;;;;4.92;2.20;;;;;;;10.87;59.91;98766.28;1605221;88;25602;-62
2022/09/07 03:49:00;;;;;;;5.40;2.05;;;;;;;10.86;59.97;98767.96;1616137;88;26187;-63
2022/09/07 03:51:26;;;;;;;3.45;2.27;;;;;;;10.82;60.24;98770.51;1616029;88;25620;-63
2022/09/07 03:53:53;;;;;;;3.65;2.10;;;;;;;10.82;60.06;98770.51;1616086;87;27390;-63
2022/09/07 03:56:22;;;;;;;3.10;1.95;;;;;;;10.81;60.14;98773.02;1616005;88;25715;-61
2022/09/07 03:58:50;;;;;;;5.00;2.42;;;;;;;10.75;60.30;98777.00;1616019;87;25649;-62
2022/09/07 04:01:20;;;;;;;6.47;2.60;;;;;;;10.70;60.56;98776.56;1615658;88;26072;-63
2022/09/07 04:03:47;;;;;;;4.73;2.37;;;;;;;10.64;60.63;98774.52;1616191;88;25455;-62
2022/09/07 04:06:14;;;;;;;5.15;2.40;;;;;;;10.61;60.70;98776.50;1616441;87;27418;-63
2022/09/07 04:08:41;;;;;;;4.75;2.20;;;;;;;10.60;60.67;98763.94;1616337;88;25573;-64
2022/09/07 04:11:12;;;;;;;3.20;1.77;;;;;;;10.62;60.71;98770.47;1616088;87;25450;-63
2022/09/07 04:13:38;;;;;;;5.05;1.98;;;;;;;10.60;60.90;98778.19;1616439;88;25479;-61
2022/09/07 04:16:20;;;;;;;4.33;2.12;;;;;;;10.55;61.02;98776.38;1615763;87;25700;-62
2022/09/07 04:18:49;;;;;;;5.20;2.17;;;;;;;10.57;60.99;98774.70;1615649;88;27434;-60
2022/09/07 04:21:17;;;;;;;3.33;2.30;;;;;;;10.57;61.24;98776.88;1615690;88;26063;-62
2022/09/07 04:23:43;;;;;;;3.72;1.70;;;;;;;10.54;61.07;98779.67;1615927;87;25734;-63
2022/09/07 04:26:16;;;;;;;5.15;2.37;;;;;;;10.54;61.18;98778.30;1615948;87;26209;-63
2022/09/07 04:28:43;;;;;;;3.75;2.30;;;;;;;10.53;61.17;98776.69;1615574;88;25683;-62
2022/09/07 04:31:10;;;;;;;3.58;1.60;;;;;;;10.49;61.55;98772.14;1615650;88;27412;-63
2022/09/07 04:33:39;;;;;;;5.12;2.20;;;;;;;10.48;61.63;98770.53;1615934;87;25760;-63
2022/09/07 04:36:07;;;;;;;8.83;3.02;;;;;;;10.48;61.50;98765.05;1616258;87;25513;-63
2022/09/07 04:38:33;;;;;;;4.12;2.70;;;;;;;10.52;61.57;98764.12;1615590;87;26103;-62
2022/09/07 04:41:07;;;;;;;2.80;1.92;;;;;;;10.52;61.49;98759.19;1615975;87;25703;-63
2022/09/07 04:43:34;;;;;;;3.70;2.12;;;;;;;10.52;61.66;98763.30;1616094;87;28189;-64
2022/09/07 04:46:22;;;;;;;5.37;1.92;;;;;;;10.51;61.42;98758.95;1605638;87;25899;-63
2022/09/07 04:48:53;;;;;;;4.28;2.25;;;;;;;10.51;61.50;98763.84;1604600;89;25439;-62
2022/09/07 04:51:22;;;;;;;3.20;2.10;;;;;;;10.53;61.62;98772.58;1597859;89;26729;-63
2022/09/07 04:53:50;;;;;;;3.52;2.30;;;;;;;10.51;61.62;98776.17;1584313;90;25519;-62
2022/09/07 04:56:18;;;;;;;4.03;2.22;;;;;;;10.53;61.64;98775.86;1586451;90;27623;-63
2022/09/07 04:58:46;;;;;;;5.05;2.35;;;;;;;10.55;61.79;98769.53;1586505;90;26085;-64
2022/09/07 05:01:19;;;;;;;4.33;1.87;;;;;;;10.58;61.71;98764.80;1586539;90;25509;-63
2022/09/07 05:03:48;;;;;;;4.35;2.12;;;;;;;10.59;61.60;98766.98;1586457;90;26235;-63
2022/09/07 05:06:16;;;;;;;2.37;1.42;;;;;;;10.58;61.99;98774.94;1586521;90;25633;-63
2022/09/07 05:08:48;;;;;;;8.78;2.92;;;;;;;10.61;61.81;98766.09;1586547;90;28060;-62
2022/09/07 05:11:16;;;;;;;5.12;2.30;;;;;;;10.58;62.10;98761.23;1586421;90;25978;-62
2022/09/07 05:13:44;;;;;;;4.45;2.87;;;;;;;10.62;62.12;98765.78;1586472;90;25736;-63
2022/09/07 05:16:22;;;;;;;3.47;1.90;;;;;;;10.65;62.01;98765.16;1586197;90;26907;-62
2022/09/07 05:18:55;;;;;;;3.58;1.95;;;;;;;10.66;62.05;98768.72;1586439;90;25443;-58
2022/09/07 05:21:25;;;;;;;4.33;2.35;;;;;;;10.69;62.19;98765.91;1586387;90;27429;-61
2022/09/07 05:23:55;;;;;;;5.43;2.20;;;;;;;10.77;62.01;98771.44;1586634;89;25649;-57
2022/09/07 05:26:25;;;;;;;4.72;2.60;;;;;;;10.82;62.01;98767.77;1586468;90;25741;-63
2022/09/07 05:28:52;;;;;;;5.53;2.17;;;;;;;10.90;62.24;98773.87;1586471;90;25979;-61
2022/09/07 05:31:21;;;;;;;8.73;3.25;;;;;;;10.96;61.96;98778.66;1586149;90;25717;-63
2022/09/07 05:33:51;;;;;;;4.53;2.45;;;;;;;11.02;62.12;98785.64;1586486;90;28113;-58
2022/09/07 05:36:17;;;;;;;4.58;2.52;;;;;;;11.07;61.82;98788.81;1586363;90;25921;-59
2022/09/07 05:38:44;;;;;;;5.22;2.58;;;;;;;11.12;62.22;98786.50;1586536;89;25709;-63
2022/09/07 05:41:20;;;;;;;5.15;2.30;;;;;;;11.21;61.83;98783.80;1586338;90;26058;-63
2022/09/07 05:43:48;;;;;;;5.45;2.52;;;;;;;11.31;62.29;98788.22;1586392;90;25468;-63
2022/09/07 05:46:15;;;;;;;7.17;2.62;;;;;;;11.35;61.50;98787.83;1594571;89;27400;-58
2022/09/07 05:48:42;;;;;;;5.58;2.75;;;;;;;11.41;61.65;98781.08;1602200;89;25688;-58
2022/09/07 05:51:09;;;;;;;3.80;1.98;;;;;;;11.41;61.77;98770.92;1602291;88;25782;-58
2022/09/07 05:53:42;;;;;;;6.62;2.30;;;;;;;11.42;61.81;98758.81;1602090;89;26875;-58
2022/09/07 05:56:09;;;;;;;3.45;2.20;;;;;;;11.51;61.77;98767.06;1602472;89;25455;-57
2022/09/07 05:58:37;;;;;;;5.03;3.33;;;;;;;11.61;61.73;98763.23;1602421;89;27464;-58
2022/09/07 06:01:07;;;;;;;3.83;2.00;;;;;;;11.69;62.05;98767.69;1602055;89;25683;-58
2022/09/07 06:03:39;;;;;;;5.62;2.77;;;;;;;11.81;61.75;98770.64;1602517;89;25551;-58
2022/09/07 06:06:09;;;;;;;5.30;2.55;;;;;;;11.85;61.79;98759.25;1602340;89;26240;-58
2022/09/07 06:08:38;;;;;;;7.07;2.73;;;;;;;11.88;61.79;98770.97;1602807;88;25616;-59
2022/09/07 06:11:08;;;;;;;5.58;2.22;;;;;;;12.02;62.08;98764.53;1602329;89;27290;-58
2022/09/07 06:13:35;;;;;;;6.45;2.90;;;;;;;12.09;61.50;98764.88;1602268;88;25842;-58
2022/09/07 06:16:04;;;;;;;5.05;2.80;;;;;;;12.08;61.77;98767.95;1602432;89;25526;-58
2022/09/07 06:18:33;;;;;;;5.67;3.02;;;;;;;12.12;61.90;98766.20;1602428;88;25981;-58
2022/09/07 06:21:06;;;;;;;6.12;3.15;;;;;;;12.22;62.05;98763.13;1602358;89;25518;-58
2022/09/07 06:23:35;;;;;;;7.03;3.47;;;;;;;12.40;61.83;98767.25;1602468;89;27241;-57
2022/09/07 06:26:02;;;;;;;6.45;2.55;;;;;;;12.59;61.78;98766.12;1602298;89;25486;-58
2022/09/07 06:28:32;;;;;;;6.95;2.62;;;;;;;12.79;61.07;98763.27;1602456;89;25664;-58
2022/09/07 06:31:08;;;;;;;7.55;3.50;;;;;;;12.87;61.28;98761.05;1602127;89;26202;-59
2022/09/07 06:33:36;;;;;;;9.90;3.20;;;;;;;13.03;61.50;98755.86;1602482;89;25503;-61
2022/09/07 06:36:06;;;;;;;7.00;2.92;;;;;;;13.18;61.11;98750.37;1602292;89;27608;-58
2022/09/07 06:38:36;;;;;;;6.33;3.22;;;;;;;13.34;60.66;98747.09;1602403;89;25672;-58
2022/09/07 06:41:16;;;;;;;5.67;2.90;;;;;;;13.42;60.67;98736.59;1602760;89;25642;-58
2022/09/07 06:43:43;;;;;;;5.37;2.85;;;;;;;13.53;60.30;98737.06;1602573;88;26021;-58
2022/09/07 06:46:10;;;;;;;4.78;3.05;;;;;;;13.72;60.21;98733.64;1597992;89;25666;-59
2022/09/07 06:48:37;;;;;;;6.87;3.12;;;;;;;13.84;60.36;98727.44;1590246;89;27432;-58
2022/09/07 06:51:15;;;;;;;6.25;3.12;;;;;;;13.88;60.28;98725.62;1590218;89;25484;-58
2022/09/07 06:53:42;;;;;;;5.10;2.98;;;;;;;13.87;60.35;98729.49;1590187;90;25495;-58
2022/09/07 06:56:15;;;;;;;5.67;3.30;;;;;;;14.03;60.29;98735.23;1590069;90;26100;-58
2022/09/07 06:58:42;;;;;;;9.18;3.58;;;;;;;14.22;60.08;98743.62;1590274;90;25528;-58
2022/09/07 07:01:15;;;;;;;6.45;3.20;;;;;;;14.24;60.22;98750.40;1590096;90;27779;-57
2022/09/07 07:03:43;;;;;;;5.90;2.72;;;;;;;14.49;60.07;98751.91;1590389;90;26223;-57
2022/09/07 07:06:12;;;;;;;4.85;3.12;;;;;;;14.66;59.08;98744.05;1590272;89;25715;-58
2022/09/07 07:08:39;;;;;;;4.33;2.95;;;;;;;14.78;59.73;98753.50;1590450;90;26249;-57
2022/09/07 07:11:09;;;;;;;6.80;3.40;;;;;;;14.88;59.14;98737.92;1590199;90;25677;-57
2022/09/07 07:13:37;;;;;;;5.22;2.87;;;;;;;14.96;59.02;98741.73;1590433;89;27468;-60
2022/09/07 07:16:12;;;;;;;5.12;3.50;;;;;;;15.26;58.53;98743.52;1590427;90;25529;-57
2022/09/07 07:18:40;;;;;;;5.62;2.98;;;;;;;15.24;58.68;98743.87;1590508;89;25551;-58
2022/09/07 07:21:12;;;;;;;6.87;3.27;;;;;;;15.24;58.68;98743.87;1590354;90;26053;-59
2022/09/07 07:23:39;;;;;;;5.92;3.47;;;;;;;15.28;58.63;98746.73;1590291;90;25714;-58
2022/09/07 07:26:12;;;;;;;5.10;3.30;;;;;;;15.49;58.39;98761.81;1590339;90;27493;-57
2022/09/07 07:28:46;;;;;;;7.10;3.60;;;;;;;15.70;58.84;98752.63;1590159;90;25685;-57
2022/09/07 07:31:15;;;;;;;7.62;3.35;;;;;;;16.12;58.01;98757.08;1590318;90;25773;-58
2022/09/07 07:33:42;;;;;;;9.03;3.30;;;;;;;16.35;57.46;98748.27;1590539;90;26054;-57
2022/09/07 07:36:19;;;;;;;6.87;3.35;;;;;;;16.50;57.73;98748.69;1590278;90;25777;-58
2022/09/07 07:38:48;;;;;;;4.87;3.17;;;;;;;16.77;58.39;98747.64;1590536;90;28284;-57
2022/09/07 07:41:17;;;;;;;6.40;3.17;;;;;;;16.84;56.32;98753.36;1590325;89;25816;-58
2022/09/07 07:43:44;;;;;;;5.67;3.60;;;;;;;16.96;57.23;98764.98;1590540;90;25733;-58
2022/09/07 07:46:16;;;;;;;7.72;3.50;;;;;;;17.22;56.78;98766.47;1592779;89;26552;-59
2022/09/07 07:48:44;;;;;;;5.50;3.20;;;;;;;17.24;56.01;98756.42;1602237;89;25471;-59
2022/09/07 07:51:11;;;;;;;4.40;3.40;;;;;;;17.44;56.58;98760.06;1602624;88;27628;-60
2022/09/07 07:53:45;;;;;;;6.35;3.50;;;;;;;17.43;55.12;98759.28;1602393;88;25689;-58
2022/09/07 07:56:13;;;;;;;5.60;3.12;;;;;;;17.38;55.87;98751.80;1602407;89;25452;-58
2022/09/07 07:58:44;;;;;;;5.17;3.22;;;;;;;17.48;56.04;98762.94;1602417;89;25895;-58
2022/09/07 08:01:12;;;;;;;;;;;;;;;17.77;56.27;98760.85;1604918;89;25653;-59
2022/09/07 08:03:42;;;;;;;5.15;3.27;;;;;;;18.18;54.73;98755.06;1602383;89;27444;-58
2022/09/07 08:06:13;;;;;;;5.22;3.25;;;;;;;18.42;54.40;98751.20;1602646;89;25533;-58
2022/09/07 08:08:40;;;;;;;5.62;3.42;;;;;;;18.58;53.96;98757.84;1602522;88;25521;-58
2022/09/07 08:11:15;;;;;;;8.78;3.67;;;;;;;18.93;54.15;98752.77;1602531;89;26077;-59
2022/09/07 08:13:44;;;;;;;6.62;3.85;;;;;;;19.27;53.06;98758.58;1602407;89;25707;-59
2022/09/07 08:16:12;;;;;;;8.98;3.60;;;;;;;19.47;52.81;98752.95;1602500;89;27634;-58
2022/09/07 08:18:39;;;;;;;6.40;3.85;;;;;;;19.79;52.44;98748.48;1602313;89;25481;-58
2022/09/07 08:21:11;;;;;;;7.75;3.70;;;;;;;20.06;51.39;98745.70;1602293;89;25802;-60
2022/09/07 08:23:39;;;;;;;7.90;3.70;;;;;;;20.26;51.93;98746.96;1602663;89;26580;-59
2022/09/07 08:26:07;;;;;;;4.70;3.20;;;;;;;20.36;51.86;98741.33;1602539;88;25693;-59
2022/09/07 08:28:38;;;;;;;5.85;3.45;;;;;;;20.76;51.34;98737.63;1602194;89;27077;-59
2022/09/07 08:31:11;;;;;;;7.58;3.52;;;;;;;21.05;49.38;98739.34;1601911;88;25715;-58
2022/09/07 08:33:38;;;;;;;9.90;3.90;;;;;;;20.83;49.54;98731.89;1602625;89;25471;-58
2022/09/07 08:36:10;;;;;;;4.97;3.50;;;;;;;20.85;51.13;98730.94;1602150;88;26093;-58
2022/09/07 08:38:37;;;;;;;5.50;3.62;;;;;;;21.17;49.69;98732.68;1602436;89;25722;-58
2022/09/07 08:41:44;;;;;;;8.08;3.85;;;;;;;21.46;50.20;98726.54;1602130;89;27415;-58
2022/09/07 08:44:38;;;;;;;6.67;3.90;;;;;;;22.03;48.80;98719.78;1602180;89;25680;-58
2022/09/07 08:47:44;;;;;;;6.10;3.75;;;;;;;22.58;48.38;98717.23;1597158;89;25699;-58
2022/09/07 08:50:27;;;;;;;5.83;4.00;;;;;;;23.03;47.76;98715.52;1590471;90;26883;-59
2022/09/07 08:53:13;;;;;;;6.58;3.80;;;;;;;23.30;46.80;98716.55;1590244;90;25658;-58
2022/09/07 08:56:03;;;;;;;5.65;4.33;;;;;;;23.44;46.33;98720.56;1590371;90;27427;-59
2022/09/07 08:58:46;;;;;;;5.10;4.10;;;;;;;23.61;45.87;98723.75;1590409;90;25449;-58
2022/09/07 09:01:30;;;;;;;8.28;4.30;;;;;;;24.06;45.84;98721.25;1590347;90;25521;-59
2022/09/07 09:03:57;;;;;;;5.65;4.05;;;;;;;24.61;44.72;98721.05;1590279;90;26663;-58
2022/09/07 09:06:59;;;;;;;6.35;4.15;;;;;;;25.08;44.06;98716.39;1590398;90;25460;-58
2022/09/07 09:09:31;;;;;;;4.40;3.77;;;;;;;25.35;43.95;98714.38;1590336;90;27406;-59
2022/09/07 09:12:26;;;;;;;6.45;3.75;;;;;;;25.74;41.69;98711.06;1589960;89;25943;-58
2022/09/07 09:15:21;;;;;;;7.20;3.55;;;;;;;25.68;43.61;98708.69;1590202;90;25514;-58
2022/09/07 09:18:16;;;;;;;6.03;3.80;;;;;;;25.56;42.36;98710.61;1590086;90;25964;-58
2022/09/07 09:20:55;;;;;;;6.45;4.65;;;;;;;25.54;42.23;98715.83;1588338;90;25471;-58
2022/09/07 09:23:39;;;;;;;5.25;4.28;;;;;;;25.99;41.82;98710.00;1590270;90;28051;-58
2022/09/07 09:26:19;;;;;;;5.70;4.42;;;;;;;26.46;41.04;98710.06;1590125;90;25698;-59
2022/09/07 09:28:46;;;;;;;6.10;4.50;;;;;;;26.58;41.27;98705.88;1590018;90;25481;-58
2022/09/07 09:31:24;;;;;;;4.78;3.92;;;;;;;26.95;41.19;98711.19;1597966;88;26001;-58
2022/09/07 09:34:13;;;;;;;4.85;3.60;;;;;;;27.40;40.17;98709.31;1620569;88;25756;-59
2022/09/07 09:36:53;;;;;;;6.47;3.42;;;;;;;27.80;40.23;98709.41;1620538;88;27286;-58
2022/09/07 09:39:34;;;;;;;;;;;;;;;28.29;39.00;98701.61;1622880;88;25696;-59
2022/09/07 09:42:22;;;;;;;4.37;3.55;;;;;;;28.60;39.48;98696.36;1620835;88;25764;-59
2022/09/07 09:44:50;;;;;;;4.37;3.70;;;;;;;28.41;36.94;98692.53;1613133;88;26763;-58
2022/09/07 09:47:34;;;;;;;5.33;3.70;;;;;;;28.09;38.65;98692.56;1596057;89;25859;-59
2022/09/07 09:50:06;;;;;;;8.55;3.95;;;;;;;28.32;37.88;98685.28;1612697;88;27460;-58
2022/09/07 09:52:35;;;;;;;4.60;3.60;;;;;;;28.76;37.67;98682.93;1620213;88;25938;-59
2022/09/07 09:55:05;;;;;;;5.50;3.58;;;;;;;29.25;37.56;98687.84;1624892;88;25718;-59
2022/09/07 09:57:50;;;;;;;5.90;3.50;;;;;;;29.67;36.86;98685.76;1624958;88;26098;-58
2022/09/07 10:00:20;;;;;;;8.05;3.80;;;;;;;29.85;36.71;98681.67;1603692;88;25886;-58
2022/09/07 10:03:07;;;;;;;5.45;3.58;;;;;;;30.05;36.16;98684.31;1610276;89;28197;-58
2022/09/07 10:05:43;;;;;;;5.50;3.40;;;;;;;30.03;35.87;98687.42;1605368;89;25833;-58
2022/09/07 10:08:31;;;;;;;7.15;4.25;;;;;;;29.88;35.28;98676.52;1626443;87;25696;-56
2022/09/07 10:11:00;;;;;;;5.83;3.27;;;;;;;29.76;36.62;98682.93;1608832;89;25785;-57
2022/09/07 10:13:33;;;;;;;4.12;3.72;;;;;;;30.14;34.91;98682.23;1610589;89;25703;-56
2022/09/07 10:16:04;;;;;;;4.65;3.67;;;;;;;30.41;35.52;98681.09;1601841;89;25956;-56
2022/09/07 10:18:38;;;;;;;9.88;3.67;;;;;;;30.57;35.51;98680.83;1608641;89;25867;-57
2022/09/07 10:21:24;;;;;;;6.05;4.03;;;;;;;30.29;34.00;98679.03;1627101;87;25437;-56
2022/09/07 10:24:02;;;;;;;5.30;3.60;;;;;;;29.70;35.99;98671.36;1610886;89;25999;-56
2022/09/07 10:26:33;;;;;;;4.87;3.37;;;;;;;30.06;34.77;98666.75;1625541;88;25471;-57
2022/09/07 10:29:25;;;;;;;6.37;3.52;;;;;;;30.23;35.65;98673.77;1627309;87;27387;-60
2022/09/07 10:32:27;;;;;;;5.53;3.30;;;;;;;30.48;35.65;98681.48;1610769;88;26464;-58
2022/09/07 10:35:07;;;;;;;7.37;3.60;;;;;;;31.28;35.24;98673.32;1610951;88;25477;-59
2022/09/07 10:37:58;;;;;;;4.90;3.52;;;;;;;32.17;34.22;98675.50;1595822;89;26232;-58
2022/09/07 10:40:32;;;;;;;4.58;3.77;;;;;;;32.37;33.62;98676.39;1626384;88;25452;-62
2022/09/07 10:43:28;;;;;;;4.50;3.17;;;;;;;32.55;34.04;98670.84;1627135;88;27482;-59
2022/09/07 10:46:38;;;;;;;5.30;3.62;;;;;;;32.56;31.75;98673.06;1600055;89;26099;-59
2022/09/07 10:49:35;;;;;;;3.52;3.22;;;;;;;31.86;32.62;98670.53;1598046;89;25650;-60
2022/09/07 10:52:28;;;;;;;4.50;3.30;;;;;;;31.53;32.59;98666.04;1566653;91;26417;-58
2022/09/07 10:55:16;;;;;;;3.20;2.90;;;;;;;31.23;32.58;98668.88;1525564;94;25587;-57
2022/09/07 10:57:50;;;;;;;4.12;3.45;;;;;;;31.63;33.08;98668.31;1539837;93;27444;-59
2022/09/07 11:00:19;;;;;;;3.40;3.10;;;;;;;31.39;32.77;98667.94;1539422;93;25772;-58
2022/09/07 11:03:18;;;;;;;;;;;;;;;31.25;32.74;98663.52;1542027;93;25794;-58
2022/09/07 11:06:18;;;;;;;4.62;3.20;;;;;;;31.37;32.91;98664.15;1539588;93;26455;-60
2022/09/07 11:09:01;;;;;;;3.40;3.10;;;;;;;31.76;32.07;98666.85;1539721;92;25524;-58
2022/09/07 11:11:42;;;;;;;3.77;2.95;;;;;;;31.57;32.82;98667.95;1539789;93;27433;-58
2022/09/07 11:14:14;;;;;;;4.60;3.30;;;;;;;31.31;33.15;98665.95;1539363;93;25821;-58
2022/09/07 11:16:51;;;;;;;3.77;3.30;;;;;;;31.14;33.08;98667.52;1538423;93;25817;-56
2022/09/07 11:19:34;;;;;;;6.05;3.08;;;;;;;31.21;33.03;98667.91;1538973;93;26001;-56
2022/09/07 11:22:27;;;;;;;2.80;2.60;;;;;;;31.38;32.89;98655.05;1539501;93;25757;-55
2022/09/07 11:25:26;;;;;;;4.00;3.60;;;;;;;30.97;32.92;98659.01;1539743;93;27803;-55
2022/09/07 11:28:00;;;;;;;4.55;3.35;;;;;;;31.11;32.91;98657.11;1548730;92;25599;-56
2022/09/07 11:30:43;;;;;;;5.50;3.40;;;;;;;31.40;33.08;98655.38;1548964;92;25584;-56
2022/09/07 11:33:24;;;;;;;5.53;3.20;;;;;;;31.73;32.59;98653.61;1588235;89;26234;-56
2022/09/07 11:36:12;;;;;;;3.87;3.20;;;;;;;31.46;32.97;98642.23;1594665;89;25682;-55
2022/09/07 11:38:59;;;;;;;3.75;3.20;;;;;;;31.80;33.54;98653.95;1625093;87;27413;-56
2022/09/07 11:41:33;;;;;;;4.08;2.95;;;;;;;32.53;31.75;98649.23;1606714;89;25729;-56
2022/09/07 11:44:29;;;;;;;3.87;3.20;;;;;;;33.14;31.13;98645.21;1625325;88;25615;-56
2022/09/07 11:47:04;;;;;;;3.55;3.25;;;;;;;33.21;30.56;98646.17;1606773;89;26018;-57
2022/09/07 11:49:30;;;;;;;3.55;3.22;;;;;;;33.15;30.98;98638.89;1625391;88;25428;-59
2022/09/07 11:52:02;;;;;;;4.58;3.22;;;;;;;33.44;31.16;98637.66;1606660;89;27439;-58
2022/09/07 11:54:44;;;;;;;6.03;3.15;;;;;;;32.83;30.67;98633.28;1625354;88;25638;-62
2022/09/07 11:57:37;;;;;;;4.42;2.92;;;;;;;32.71;31.21;98627.09;1606986;89;25889;-60
2022/09/07 12:00:12;;;;;;;4.30;3.40;;;;;;;32.49;30.78;98628.75;1624604;88;28067;-63
2022/09/07 12:02:55;;;;;;;4.20;3.30;;;;;;;31.88;31.65;98623.32;1607298;89;25663;-62
2022/09/07 12:06:00;;;;;;;4.70;3.12;;;;;;;32.53;31.81;98623.72;1623963;87;27680;-58
2022/09/07 12:09:08;;;;;;;3.50;3.20;;;;;;;32.73;31.08;98617.49;1606717;89;25453;-60
2022/09/07 12:12:06;;;;;;;3.55;3.25;;;;;;;32.30;31.83;98618.70;1624944;88;25740;-62